createdAt,value
2023-04-18T00:02:26.162Z,14.92
2023-04-18T00:04:55.363Z,14.30
2023-04-18T00:07:25.636Z,14.79
2023-04-18T00:09:54.370Z,14.29
2023-04-18T00:12:23.306Z,13.99
2023-04-18T00:14:52.227Z,14.63
2023-04-18T00:17:22.304Z,14.47
2023-04-18T00:19:52.445Z,14.75
2023-04-18T00:22:22.548Z,14.65
2023-04-18T00:24:53.346Z,14.36
2023-04-18T00:27:22.883Z,14.41
2023-04-18T00:29:52.970Z,14.93
2023-04-18T00:32:21.619Z,14.60
2023-04-18T00:34:50.238Z,14.48
2023-04-18T00:37:20.380Z,14.18
2023-04-18T00:39:53.885Z,14.65
2023-04-18T00:42:27.286Z,14.26
2023-04-18T00:44:56.030Z,14.82
2023-04-18T00:47:25.001Z,13.96
2023-04-18T00:49:53.929Z,14.11
2023-04-18T00:52:22.781Z,14.42
2023-04-18T00:54:53.114Z,14.30
2023-04-18T00:57:22.181Z,14.39
2023-04-18T00:59:53.172Z,14.50
2023-04-18T01:02:22.325Z,14.26
2023-04-18T01:04:52.234Z,14.06
2023-04-18T01:07:20.926Z,14.40
2023-04-18T01:09:49.621Z,14.30
2023-04-18T01:12:19.958Z,14.36
2023-04-18T01:14:48.673Z,13.51
2023-04-18T01:17:17.583Z,14.09
2023-04-18T01:19:46.810Z,13.82
2023-04-18T01:22:15.915Z,14.03
2023-04-18T01:24:45.899Z,13.49
2023-04-18T01:27:15.182Z,13.46
2023-04-18T01:29:43.879Z,13.87
2023-04-18T01:32:12.894Z,14.17
2023-04-18T01:34:41.954Z,13.80
2023-04-18T01:37:10.640Z,13.95
2023-04-18T01:39:39.340Z,14.03
2023-04-18T01:42:09.613Z,13.70
2023-04-18T01:44:39.226Z,13.88
2023-04-18T01:47:08.121Z,13.69
2023-04-18T01:49:36.807Z,13.71
2023-04-18T01:52:05.440Z,13.39
2023-04-18T01:54:34.332Z,13.78
2023-04-18T01:57:03.400Z,13.25
2023-04-18T01:59:33.677Z,13.88
2023-04-18T02:02:03.870Z,14.02
2023-04-18T02:04:32.982Z,13.87
2023-04-18T02:07:01.644Z,14.33
2023-04-18T02:09:30.409Z,14.56
2023-04-18T02:12:03.395Z,14.49
2023-04-18T02:14:36.898Z,14.11
2023-04-18T02:17:05.880Z,14.22
2023-04-18T02:19:34.607Z,14.86
2023-04-18T02:22:03.276Z,14.89
2023-04-18T02:24:33.184Z,14.69
2023-04-18T02:27:02.019Z,14.45
2023-04-18T02:29:31.201Z,14.49
2023-04-18T02:32:01.535Z,14.73
2023-04-18T02:34:30.302Z,14.65
2023-04-18T02:36:59.044Z,14.61
2023-04-18T02:39:28.029Z,14.80
2023-04-18T02:41:56.711Z,14.54
2023-04-18T02:44:26.424Z,14.81
2023-04-18T02:46:56.512Z,14.80
2023-04-18T02:49:26.969Z,14.69
2023-04-18T02:51:56.781Z,14.59
2023-04-18T02:54:25.804Z,14.67
2023-04-18T02:56:55.499Z,14.70
2023-04-18T02:59:26.917Z,14.57
2023-04-18T03:01:56.446Z,14.29
2023-04-18T03:04:27.303Z,14.44
2023-04-18T03:06:57.960Z,14.63
2023-04-18T03:09:27.538Z,14.48
2023-04-18T03:11:56.870Z,14.50
2023-04-18T03:14:26.022Z,13.83
2023-04-18T03:16:55.772Z,13.21
2023-04-18T03:19:24.652Z,13.60
2023-04-18T03:21:55.496Z,13.82
2023-04-18T03:24:24.620Z,13.98
2023-04-18T03:26:54.029Z,14.22
2023-04-18T03:29:23.041Z,14.46
2023-04-18T03:31:53.366Z,14.13
2023-04-18T03:34:22.480Z,13.99
2023-04-18T03:36:51.814Z,14.22
2023-04-18T03:39:22.207Z,14.20
2023-04-18T03:41:52.221Z,14.63
2023-04-18T03:44:21.581Z,14.47
2023-04-18T03:46:50.513Z,14.58
2023-04-18T03:49:22.588Z,14.79
2023-04-18T03:51:52.098Z,14.86
2023-04-18T03:54:22.212Z,14.72
2023-04-18T03:56:51.336Z,14.52
2023-04-18T03:59:20.428Z,14.70
2023-04-18T04:01:49.532Z,14.69
2023-04-18T04:04:19.559Z,14.50
2023-04-18T04:06:48.619Z,14.99
2023-04-18T04:09:18.116Z,14.48
2023-04-18T04:11:48.606Z,14.15
2023-04-18T04:14:17.481Z,13.83
2023-04-18T04:16:46.539Z,13.96
2023-04-18T04:19:16.468Z,14.06
2023-04-18T04:21:45.688Z,14.06
2023-04-18T04:24:15.325Z,14.23
2023-04-18T04:26:46.706Z,14.22
2023-04-18T04:29:17.196Z,13.98
2023-04-18T04:31:46.635Z,13.94
2023-04-18T04:34:20.936Z,14.23
2023-04-18T04:36:51.260Z,13.39
2023-04-18T04:39:20.078Z,13.62
2023-04-18T04:41:50.119Z,13.53
2023-04-18T04:44:22.069Z,14.03
2023-04-18T04:46:50.686Z,13.84
2023-04-18T04:49:19.915Z,13.92
2023-04-18T04:51:49.607Z,14.13
2023-04-18T04:54:18.426Z,13.82
2023-04-18T04:56:47.425Z,13.88
2023-04-18T04:59:16.369Z,13.84
2023-04-18T05:01:59.803Z,13.60
2023-04-18T05:04:47.177Z,13.93
2023-04-18T05:07:15.930Z,13.92
2023-04-18T05:09:44.968Z,14.17
2023-04-18T05:12:13.707Z,13.53
2023-04-18T05:14:42.393Z,13.36
2023-04-18T05:17:12.796Z,13.80
2023-04-18T05:19:43.364Z,13.85
2023-04-18T05:22:12.363Z,13.36
2023-04-18T05:24:41.264Z,13.37
2023-04-18T05:27:10.056Z,13.70
2023-04-18T05:29:41.234Z,13.99
2023-04-18T05:32:13.004Z,14.26
2023-04-18T05:34:43.432Z,14.43
2023-04-18T05:37:12.148Z,14.43
2023-04-18T05:39:40.926Z,14.45
2023-04-18T05:42:09.963Z,14.51
2023-04-18T05:44:38.742Z,14.57
2023-04-18T05:47:07.776Z,14.67
2023-04-18T05:49:36.743Z,14.80
2023-04-18T05:52:06.853Z,14.85
2023-04-18T05:54:35.854Z,14.56
2023-04-18T05:57:05.030Z,14.65
2023-04-18T05:59:33.694Z,14.48
2023-04-18T06:02:02.442Z,14.72
2023-04-18T06:04:31.608Z,14.82
2023-04-18T06:07:00.593Z,14.77
2023-04-18T06:09:30.819Z,14.83
2023-04-18T06:11:59.908Z,15.09
2023-04-18T06:14:28.736Z,15.30
2023-04-18T06:16:57.553Z,15.29
2023-04-18T06:19:26.733Z,15.19
2023-04-18T06:21:55.414Z,14.71
2023-04-18T06:24:24.092Z,14.96
2023-04-18T06:26:55.237Z,14.63
2023-04-18T06:29:24.635Z,15.20
2023-04-18T06:31:53.623Z,15.03
2023-04-18T06:34:22.257Z,14.65
2023-04-18T06:36:51.075Z,15.03
2023-04-18T06:39:20.172Z,15.17
2023-04-18T06:41:49.290Z,15.04
2023-04-18T06:44:23.010Z,14.51
2023-04-18T06:46:52.030Z,14.87
2023-04-18T06:49:25.204Z,14.80
2023-04-18T06:51:55.471Z,14.24
2023-04-18T06:54:24.140Z,14.94
2023-04-18T06:56:53.802Z,14.69
2023-04-18T06:59:24.209Z,15.31
2023-04-18T07:01:55.312Z,15.03
2023-04-18T07:04:24.352Z,15.17
2023-04-18T07:06:53.294Z,15.45
2023-04-18T07:09:22.796Z,15.33
2023-04-18T07:11:52.723Z,15.53
2023-04-18T07:14:24.690Z,15.55
2023-04-18T07:16:53.750Z,15.85
2023-04-18T07:19:22.612Z,16.04
2023-04-18T07:21:51.224Z,15.97
2023-04-18T07:24:20.416Z,16.19
2023-04-18T07:26:49.082Z,15.63
2023-04-18T07:29:19.367Z,16.46
2023-04-18T07:31:49.903Z,16.21
2023-04-18T07:34:18.703Z,15.68
2023-04-18T07:36:47.313Z,16.08
2023-04-18T07:39:16.305Z,16.04
2023-04-18T07:41:44.967Z,15.35
2023-04-18T07:44:13.963Z,15.83
2023-04-18T07:46:43.206Z,15.94
2023-04-18T07:49:13.591Z,15.98
2023-04-18T07:51:45.883Z,15.79
2023-04-18T07:54:14.529Z,15.72
2023-04-18T07:56:43.204Z,16.43
2023-04-18T07:59:12.951Z,16.03
2023-04-18T08:01:41.839Z,15.67
2023-04-18T08:04:12.013Z,15.67
2023-04-18T08:06:42.213Z,15.62
2023-04-18T08:09:12.062Z,16.51
2023-04-18T08:11:43.232Z,16.45
2023-04-18T08:14:12.169Z,16.52
2023-04-18T08:16:40.940Z,16.12
2023-04-18T08:19:09.686Z,16.03
2023-04-18T08:21:39.353Z,16.38
2023-04-18T08:24:09.760Z,16.80
2023-04-18T08:26:38.726Z,16.85
2023-04-18T08:29:08.069Z,17.31
2023-04-18T08:31:36.921Z,17.31
2023-04-18T08:34:08.349Z,17.31
2023-04-18T08:36:37.014Z,17.20
2023-04-18T08:39:06.348Z,16.68
2023-04-18T08:41:38.370Z,17.46
2023-04-18T08:44:08.485Z,17.99
2023-04-18T08:46:37.777Z,17.29
2023-04-18T08:49:07.251Z,17.49
2023-04-18T08:51:36.642Z,17.10
2023-04-18T08:54:06.954Z,17.83
2023-04-18T08:56:38.462Z,17.79
2023-04-18T08:59:06.976Z,17.63
2023-04-18T09:01:56.366Z,17.98
2023-04-18T09:04:36.719Z,17.82
2023-04-18T09:07:06.685Z,18.05
2023-04-18T09:09:46.179Z,17.92
2023-04-18T09:12:18.423Z,18.02
2023-04-18T09:14:48.539Z,18.24
2023-04-18T09:17:32.615Z,18.51
2023-04-18T09:20:02.232Z,18.60
2023-04-18T09:22:45.975Z,18.42
2023-04-18T09:25:26.153Z,18.86
2023-04-18T09:27:57.384Z,19.37
2023-04-18T09:30:39.582Z,19.00
2023-04-18T09:33:10.439Z,18.27
2023-04-18T09:35:39.221Z,18.68
2023-04-18T09:38:09.455Z,19.13
2023-04-18T09:40:38.217Z,18.55
2023-04-18T09:43:20.516Z,17.96
2023-04-18T09:45:49.743Z,18.97
2023-04-18T09:48:18.498Z,18.64
2023-04-18T09:50:47.518Z,18.07
2023-04-18T09:53:21.039Z,18.26
2023-04-18T09:55:53.042Z,18.24
2023-04-18T09:58:27.142Z,17.94
2023-04-18T10:00:56.160Z,18.68
2023-04-18T10:03:29.887Z,19.14
2023-04-18T10:05:58.613Z,19.15
2023-04-18T10:08:27.882Z,18.58
2023-04-18T10:10:58.691Z,18.30
2023-04-18T10:13:28.896Z,18.63
2023-04-18T10:15:57.636Z,18.84
2023-04-18T10:18:26.390Z,18.68
2023-04-18T10:21:03.119Z,18.67
2023-04-18T10:23:39.901Z,19.26
2023-04-18T10:26:09.240Z,19.18
2023-04-18T10:28:54.342Z,19.32
2023-04-18T10:31:24.613Z,19.05
2023-04-18T10:34:03.728Z,19.38
2023-04-18T10:36:34.182Z,19.07
2023-04-18T10:39:04.399Z,19.44
2023-04-18T10:41:33.867Z,19.43
2023-04-18T10:44:22.293Z,19.53
2023-04-18T10:47:24.898Z,20.28
2023-04-18T10:49:58.938Z,20.29
2023-04-18T10:52:28.461Z,20.22
2023-04-18T10:55:09.777Z,20.01
2023-04-18T10:57:42.412Z,20.49
2023-04-18T11:00:15.243Z,19.64
2023-04-18T11:02:52.599Z,19.81
2023-04-18T11:05:24.624Z,20.02
2023-04-18T11:07:53.739Z,19.86
2023-04-18T11:10:23.972Z,20.06
2023-04-18T11:12:53.313Z,20.22
2023-04-18T11:15:25.505Z,20.39
2023-04-18T11:17:59.392Z,20.30
2023-04-18T11:20:29.246Z,20.40
2023-04-18T11:22:59.332Z,20.45
2023-04-18T11:25:29.786Z,19.93
2023-04-18T11:28:02.687Z,19.69
2023-04-18T11:30:41.884Z,19.93
2023-04-18T11:33:11.340Z,20.33
2023-04-18T11:35:41.280Z,20.48
2023-04-18T11:38:12.569Z,19.94
2023-04-18T11:40:48.619Z,19.11
2023-04-18T11:43:21.579Z,19.39
2023-04-18T11:45:59.332Z,19.17
2023-04-18T11:48:36.198Z,19.41
2023-04-18T11:51:06.512Z,19.12
2023-04-18T11:53:35.569Z,19.59
2023-04-18T11:56:04.950Z,19.34
2023-04-18T11:58:34.051Z,19.26
2023-04-18T12:01:20.540Z,19.50
2023-04-18T12:04:03.000Z,19.69
2023-04-18T12:06:47.442Z,19.50
2023-04-18T12:09:16.533Z,19.59
2023-04-18T12:11:45.478Z,19.72
2023-04-18T12:14:21.694Z,19.81
2023-04-18T12:16:52.182Z,19.81
2023-04-18T12:19:21.567Z,20.20
2023-04-18T12:21:57.849Z,19.88
2023-04-18T12:24:26.591Z,19.96
2023-04-18T12:26:55.789Z,19.76
2023-04-18T12:29:24.804Z,20.08
2023-04-18T12:31:54.872Z,20.24
2023-04-18T12:34:23.951Z,20.43
2023-04-18T12:36:53.777Z,20.53
2023-04-18T12:39:22.418Z,20.00
2023-04-18T12:41:51.397Z,19.49
2023-04-18T12:44:20.108Z,19.73
2023-04-18T12:46:48.816Z,19.63
2023-04-18T12:49:19.217Z,19.45
2023-04-18T12:51:47.932Z,19.75
2023-04-18T12:54:16.739Z,20.40
2023-04-18T12:56:46.518Z,20.39
2023-04-18T12:59:15.421Z,20.07
2023-04-18T13:01:44.308Z,20.27
2023-04-18T13:04:13.880Z,20.71
2023-04-18T13:06:44.321Z,20.65
2023-04-18T13:09:13.613Z,20.54
2023-04-18T13:11:42.601Z,20.42
2023-04-18T13:14:11.374Z,19.94
2023-04-18T13:16:43.113Z,20.46
2023-04-18T13:19:12.757Z,20.30
2023-04-18T13:21:42.023Z,20.33
2023-04-18T13:24:12.035Z,19.89
2023-04-18T13:26:40.731Z,20.61
2023-04-18T13:29:09.686Z,19.77
2023-04-18T13:31:38.406Z,19.81
2023-04-18T13:34:07.116Z,19.45
2023-04-18T13:36:36.112Z,19.44
2023-04-18T13:39:05.836Z,19.46
2023-04-18T13:41:35.961Z,19.44
2023-04-18T13:44:05.286Z,19.28
2023-04-18T13:46:34.037Z,18.98
2023-04-18T13:49:02.752Z,19.16
2023-04-18T13:51:31.864Z,20.07
2023-04-18T13:54:01.326Z,20.60
2023-04-18T13:56:30.024Z,21.42
2023-04-18T13:59:00.792Z,21.62
2023-04-18T14:01:29.602Z,21.81
2023-04-18T14:03:58.770Z,22.22
2023-04-18T14:06:27.695Z,22.70
2023-04-18T14:08:56.420Z,22.45
2023-04-18T14:11:27.598Z,22.41
2023-04-18T14:13:56.296Z,22.94
2023-04-18T14:16:26.676Z,22.46
2023-04-18T14:18:55.404Z,22.65
2023-04-18T14:21:24.137Z,21.88
2023-04-18T14:23:54.331Z,21.12
2023-04-18T14:26:23.221Z,20.32
2023-04-18T14:28:52.149Z,20.78
2023-04-18T14:31:21.735Z,21.10
2023-04-18T14:33:51.733Z,21.60
2023-04-18T14:36:20.614Z,22.25
2023-04-18T14:38:50.177Z,22.53
2023-04-18T14:41:18.938Z,22.64
2023-04-18T14:43:47.779Z,23.29
2023-04-18T14:46:17.323Z,23.52
2023-04-18T14:48:47.254Z,24.09
2023-04-18T14:51:17.930Z,24.34
2023-04-18T14:53:46.679Z,24.46
2023-04-18T14:56:16.132Z,25.07
2023-04-18T14:58:45.000Z,24.13
2023-04-18T15:01:13.712Z,23.18
2023-04-18T15:03:42.414Z,23.31
2023-04-18T15:06:11.479Z,23.85
2023-04-18T15:08:41.637Z,22.58
2023-04-18T15:11:10.414Z,23.51
2023-04-18T15:13:40.035Z,23.92
2023-04-18T15:16:09.240Z,23.85
2023-04-18T15:18:38.078Z,23.29
2023-04-18T15:21:07.252Z,23.66
2023-04-18T15:23:36.097Z,23.23
2023-04-18T15:26:06.448Z,22.29
2023-04-18T15:28:35.389Z,22.63
2023-04-18T15:31:04.079Z,21.89
2023-04-18T15:33:32.820Z,22.09
2023-04-18T15:36:01.721Z,22.05
2023-04-18T15:38:32.824Z,21.88
2023-04-18T15:41:04.819Z,21.51
2023-04-18T15:43:34.967Z,21.33
2023-04-18T15:46:04.375Z,20.87
2023-04-18T15:48:34.502Z,20.78
2023-04-18T15:51:03.819Z,21.16
2023-04-18T15:53:32.818Z,20.63
2023-04-18T15:56:01.902Z,21.26
2023-04-18T15:58:31.122Z,20.27
2023-04-18T16:01:02.114Z,19.83
2023-04-18T16:03:31.651Z,20.11
2023-04-18T16:06:00.836Z,20.10
2023-04-18T16:08:31.315Z,20.09
2023-04-18T16:11:01.947Z,20.12
2023-04-18T16:13:30.918Z,20.14
2023-04-18T16:16:01.298Z,19.38
2023-04-18T16:18:30.291Z,19.94
2023-04-18T16:20:59.080Z,19.82
2023-04-18T16:23:27.949Z,20.04
2023-04-18T16:25:57.383Z,19.49
2023-04-18T16:28:30.033Z,20.09
2023-04-18T16:30:59.034Z,20.28
2023-04-18T16:33:29.478Z,19.90
2023-04-18T16:35:58.983Z,19.79
2023-04-18T16:38:28.137Z,19.96
2023-04-18T16:40:57.405Z,19.71
2023-04-18T16:43:28.017Z,19.27
2023-04-18T16:45:57.966Z,19.54
2023-04-18T16:48:27.216Z,18.82
2023-04-18T16:50:57.940Z,18.77
2023-04-18T16:53:26.807Z,18.89
2023-04-18T16:55:56.004Z,18.40
2023-04-18T16:58:25.277Z,18.63
2023-04-18T17:00:54.633Z,18.62
2023-04-18T17:03:23.369Z,18.78
2023-04-18T17:05:53.012Z,18.67
2023-04-18T17:08:24.323Z,18.80
2023-04-18T17:10:53.016Z,18.79
2023-04-18T17:13:22.439Z,18.92
2023-04-18T17:15:55.017Z,18.99
2023-04-18T17:18:24.868Z,19.01
2023-04-18T17:20:54.466Z,18.82
2023-04-18T17:23:25.053Z,18.93
2023-04-18T17:25:54.027Z,18.82
2023-04-18T17:28:23.695Z,18.66
2023-04-18T17:30:57.744Z,18.59
2023-04-18T17:33:29.127Z,18.57
2023-04-18T17:35:59.588Z,18.41
2023-04-18T17:38:29.740Z,18.21
2023-04-18T17:41:00.582Z,18.12
2023-04-18T17:43:31.071Z,17.96
2023-04-18T17:46:03.796Z,18.10
2023-04-18T17:48:32.674Z,17.94
2023-04-18T17:51:02.771Z,17.95
2023-04-18T17:53:33.039Z,17.84
2023-04-18T17:56:03.548Z,17.86
2023-04-18T17:58:33.322Z,17.73
2023-04-18T18:01:03.171Z,17.87
2023-04-18T18:03:33.519Z,17.61
2023-04-18T18:06:03.307Z,17.59
2023-04-18T18:08:38.290Z,17.44
2023-04-18T18:11:07.947Z,17.36
2023-04-18T18:13:39.402Z,17.15
2023-04-18T18:16:09.819Z,17.27
2023-04-18T18:18:40.754Z,17.04
2023-04-18T18:21:12.018Z,17.01
2023-04-18T18:23:43.112Z,16.93
2023-04-18T18:26:13.826Z,16.77
2023-04-18T18:28:43.250Z,16.73
2023-04-18T18:31:13.437Z,16.63
2023-04-18T18:33:45.996Z,16.60
2023-04-18T18:36:16.861Z,16.46
2023-04-18T18:38:47.790Z,16.37
2023-04-18T18:41:20.075Z,16.39
2023-04-18T18:43:50.890Z,16.50
2023-04-18T18:46:21.617Z,16.36
2023-04-18T18:48:52.169Z,16.22
2023-04-18T18:51:22.063Z,16.16
2023-04-18T18:53:52.636Z,16.13
2023-04-18T18:56:22.061Z,16.23
2023-04-18T18:58:52.089Z,16.28
2023-04-18T19:01:31.337Z,16.02
2023-04-18T19:04:00.510Z,16.17
2023-04-18T19:06:32.677Z,15.90
2023-04-18T19:09:07.751Z,16.00
2023-04-18T19:11:38.814Z,16.05
2023-04-18T19:14:09.020Z,16.02
2023-04-18T19:16:44.520Z,15.87
2023-04-18T19:19:15.266Z,15.98
2023-04-18T19:21:46.412Z,15.73
2023-04-18T19:24:20.070Z,15.97
2023-04-18T19:26:49.661Z,15.68
2023-04-18T19:29:23.858Z,15.96
2023-04-18T19:31:56.049Z,15.81
2023-04-18T19:34:26.590Z,15.74
2023-04-18T19:36:58.679Z,15.81
2023-04-18T19:39:30.238Z,15.68
2023-04-18T19:41:59.781Z,15.34
2023-04-18T19:44:31.510Z,15.45
2023-04-18T19:47:01.976Z,15.75
2023-04-18T19:49:34.068Z,15.65
2023-04-18T19:52:04.648Z,15.44
2023-04-18T19:54:36.298Z,15.58
2023-04-18T19:57:06.318Z,15.70
2023-04-18T19:59:36.437Z,15.70
2023-04-18T20:02:09.285Z,15.72
2023-04-18T20:04:42.357Z,15.79
2023-04-18T20:07:14.996Z,15.86
2023-04-18T20:09:49.186Z,15.92
2023-04-18T20:12:20.806Z,16.00
2023-04-18T20:14:51.222Z,16.05
2023-04-18T20:17:19.869Z,16.13
2023-04-18T20:19:52.975Z,15.89
2023-04-18T20:22:24.930Z,16.16
2023-04-18T20:24:58.049Z,15.75
2023-04-18T20:27:28.085Z,15.94
2023-04-18T20:29:57.802Z,15.77
2023-04-18T20:32:28.566Z,16.03
2023-04-18T20:34:58.680Z,16.24
2023-04-18T20:37:28.346Z,16.05
2023-04-18T20:40:06.537Z,16.25
2023-04-18T20:42:36.953Z,15.93
2023-04-18T20:45:11.386Z,16.00
2023-04-18T20:47:42.870Z,16.09
2023-04-18T20:50:14.539Z,16.17
2023-04-18T20:52:44.088Z,15.92
2023-04-18T20:55:16.751Z,15.99
2023-04-18T20:57:46.107Z,16.21
2023-04-18T21:00:16.390Z,15.92
2023-04-18T21:02:46.263Z,16.14
2023-04-18T21:05:15.030Z,16.19
2023-04-18T21:07:45.647Z,16.02
2023-04-18T21:10:18.726Z,15.91
2023-04-18T21:12:47.406Z,16.06
2023-04-18T21:15:16.479Z,16.03
2023-04-18T21:17:45.277Z,15.82
2023-04-18T21:20:14.075Z,15.34
2023-04-18T21:22:43.017Z,15.90
2023-04-18T21:25:11.918Z,15.80
2023-04-18T21:27:41.946Z,15.71
2023-04-18T21:30:11.504Z,15.95
2023-04-18T21:32:40.310Z,16.02
2023-04-18T21:35:09.747Z,15.90
2023-04-18T21:37:38.717Z,15.87
2023-04-18T21:40:10.687Z,16.28
2023-04-18T21:42:41.323Z,16.14
2023-04-18T21:45:11.913Z,16.27
2023-04-18T21:47:41.103Z,16.18
2023-04-18T21:50:10.822Z,15.87
2023-04-18T21:52:39.454Z,16.27
2023-04-18T21:55:08.957Z,15.95
2023-04-18T21:57:37.637Z,16.03
2023-04-18T22:00:10.716Z,16.21
2023-04-18T22:02:42.210Z,15.84
2023-04-18T22:05:12.895Z,16.00
2023-04-18T22:07:50.566Z,15.94
2023-04-18T22:10:25.983Z,15.65
2023-04-18T22:12:55.033Z,15.58
2023-04-18T22:15:27.123Z,15.28
2023-04-18T22:17:56.299Z,15.19
2023-04-18T22:20:26.894Z,15.74
2023-04-18T22:22:55.901Z,15.69
2023-04-18T22:25:24.518Z,15.65
2023-04-18T22:27:53.165Z,15.53
2023-04-18T22:30:22.272Z,16.00
2023-04-18T22:32:52.328Z,15.49
2023-04-18T22:35:21.026Z,15.47
2023-04-18T22:37:49.973Z,15.55
2023-04-18T22:40:18.809Z,15.90
2023-04-18T22:42:47.741Z,15.75
2023-04-18T22:45:18.948Z,15.23
2023-04-18T22:47:47.699Z,15.72
2023-04-18T22:50:18.136Z,16.04
2023-04-18T22:52:46.881Z,15.93
2023-04-18T22:55:16.600Z,15.82
2023-04-18T22:57:45.320Z,15.98
2023-04-18T23:00:14.707Z,15.66
2023-04-18T23:02:43.763Z,15.72
2023-04-18T23:05:15.520Z,15.68
2023-04-18T23:07:46.128Z,15.86
2023-04-18T23:10:14.805Z,16.00
2023-04-18T23:12:43.506Z,15.90
2023-04-18T23:15:13.164Z,15.68
2023-04-18T23:17:41.950Z,15.90
2023-04-18T23:20:12.472Z,16.03
2023-04-18T23:22:41.503Z,16.20
2023-04-18T23:25:11.730Z,16.12
2023-04-18T23:27:40.443Z,16.04
2023-04-18T23:30:10.467Z,15.99
2023-04-18T23:32:39.150Z,15.84
2023-04-18T23:35:08.250Z,15.96
2023-04-18T23:37:37.328Z,15.97
2023-04-18T23:40:07.932Z,15.94
2023-04-18T23:42:38.366Z,15.98
2023-04-18T23:45:07.818Z,15.87
2023-04-18T23:47:37.105Z,16.03
2023-04-18T23:50:07.729Z,15.77
2023-04-18T23:52:38.159Z,15.50
2023-04-18T23:55:07.934Z,15.57
2023-04-18T23:57:37.987Z,15.90
